Time,TemperatureF,DewpointF,PressureIn,WindDirection,WindDirectionDegrees,WindSpeedMPH,WindSpeedGustMPH,Humidity,HourlyPrecipIn,Conditions,Clouds,dailyrainin,SoftwareType,DateUTC
2013-10-23 00:11:00,59.5,59.0,29.85,SSE,148,0.0,0.0,97,0.02,,,0.00,weatherlink.com 1.10,2013-10-23 04:11:00,
2013-10-23 00:26:00,59.5,59.0,29.84,SSE,148,0.0,0.0,97,0.03,,,0.01,weatherlink.com 1.10,2013-10-23 04:26:00,
2013-10-23 00:41:00,59.4,59.0,29.84,SSE,147,0.0,0.0,97,0.06,,,0.05,weatherlink.com 1.10,2013-10-23 04:41:00,
2013-10-23 00:56:00,59.3,59.0,29.84,SSE,147,0.0,0.0,97,0.07,,,0.07,weatherlink.com 1.10,2013-10-23 04:56:00,
2013-10-23 01:11:00,59.4,59.0,29.83,SSE,147,0.0,0.0,97,0.09,,,0.09,weatherlink.com 1.10,2013-10-23 05:11:00,
2013-10-23 01:26:00,59.5,59.0,29.83,SSE,148,0.0,0.0,97,0.08,,,0.10,weatherlink.com 1.10,2013-10-23 05:26:00,
2013-10-23 01:41:00,59.6,59.0,29.82,SSE,149,0.0,1.0,97,0.06,,,0.11,weatherlink.com 1.10,2013-10-23 05:41:00,
2013-10-23 01:56:00,59.5,59.0,29.81,SSE,149,0.0,0.0,97,0.04,,,0.11,weatherlink.com 1.10,2013-10-23 05:56:00,
2013-10-23 02:11:00,59.5,59.0,29.80,SSE,149,0.0,0.0,97,0.03,,,0.12,weatherlink.com 1.10,2013-10-23 06:11:00,
2013-10-23 02:26:00,59.7,59.0,29.80,SSE,149,0.0,1.0,97,0.03,,,0.13,weatherlink.com 1.10,2013-10-23 06:26:00,
2013-10-23 02:41:00,59.7,59.0,29.80,SSE,149,0.0,0.0,97,0.02,,,0.13,weatherlink.com 1.10,2013-10-23 06:41:00,
2013-10-23 02:56:00,59.6,59.0,29.78,SSE,149,0.0,0.0,98,0.02,,,0.13,weatherlink.com 1.10,2013-10-23 06:56:00,
2013-10-23 03:11:00,59.6,59.0,29.78,SSE,149,0.0,0.0,98,0.01,,,0.13,weatherlink.com 1.10,2013-10-23 07:11:00,
2013-10-23 03:26:00,59.5,59.0,29.78,SSE,149,0.0,0.0,98,0.00,,,0.13,weatherlink.com 1.10,2013-10-23 07:26:00,
2013-10-23 03:41:00,59.5,59.0,29.78,SSE,149,0.0,1.0,98,0.00,,,0.13,weatherlink.com 1.10,2013-10-23 07:41:00,
2013-10-23 03:56:00,59.5,59.0,29.78,SSE,149,0.0,0.0,98,0.00,,,0.13,weatherlink.com 1.10,2013-10-23 07:56:00,
2013-10-23 04:11:00,59.1,59.0,29.77,SSE,149,0.0,0.0,98,0.00,,,0.13,weatherlink.com 1.10,2013-10-23 08:11:00,
2013-10-23 04:27:00,58.6,58.0,29.76,SSE,149,0.0,0.0,98,0.00,,,0.13,weatherlink.com 1.10,2013-10-23 08:27:00,
2013-10-23 04:42:00,58.8,58.0,29.76,NW,322,0.0,1.0,98,0.00,,,0.13,weatherlink.com 1.10,2013-10-23 08:42:00,
2013-10-23 04:57:00,59.1,59.0,29.76,NW,316,0.0,1.0,98,0.00,,,0.13,weatherlink.com 1.10,2013-10-23 08:57:00,
2013-10-23 05:12:00,59.3,59.0,29.76,WNW,297,0.0,2.0,98,0.00,,,0.13,weatherlink.com 1.10,2013-10-23 09:12:00,
2013-10-23 05:27:00,59.3,59.0,29.75,SW,233,0.0,1.0,98,0.00,,,0.13,weatherlink.com 1.10,2013-10-23 09:27:00,
2013-10-23 05:42:00,59.3,59.0,29.75,WNW,295,0.0,2.0,98,0.00,,,0.13,weatherlink.com 1.10,2013-10-23 09:42:00,
2013-10-23 05:57:00,59.4,59.0,29.75,NW,305,0.0,2.0,98,0.00,,,0.13,weatherlink.com 1.10,2013-10-23 09:57:00,
2013-10-23 06:12:00,59.6,59.0,29.76,NW,305,0.0,1.0,98,0.00,,,0.13,weatherlink.com 1.10,2013-10-23 10:12:00,
2013-10-23 06:27:00,59.6,59.0,29.76,WNW,300,0.0,5.0,98,0.00,,,0.13,weatherlink.com 1.10,2013-10-23 10:27:00,
2013-10-23 06:42:00,59.7,59.0,29.76,WNW,293,0.0,1.0,98,0.00,,,0.13,weatherlink.com 1.10,2013-10-23 10:42:00,
2013-10-23 06:57:00,59.8,59.0,29.77,NW,313,3.0,4.0,98,0.00,,,0.13,weatherlink.com 1.10,2013-10-23 10:57:00,
2013-10-23 07:12:00,59.6,59.0,29.76,West,275,0.0,5.0,98,0.00,,,0.13,weatherlink.com 1.10,2013-10-23 11:12:00,
2013-10-23 07:27:00,59.2,59.0,29.77,West,267,0.0,3.0,98,0.00,,,0.13,weatherlink.com 1.10,2013-10-23 11:27:00,
2013-10-23 07:42:00,58.8,58.0,29.77,WNW,303,0.0,2.0,98,0.00,,,0.13,weatherlink.com 1.10,2013-10-23 11:42:00,
2013-10-23 07:57:00,59.0,59.0,29.77,WNW,287,1.0,4.0,98,0.00,,,0.13,weatherlink.com 1.10,2013-10-23 11:57:00,
2013-10-23 08:12:00,59.1,59.0,29.77,NW,305,0.0,6.0,98,0.00,,,0.13,weatherlink.com 1.10,2013-10-23 12:12:00,
2013-10-23 08:27:00,59.4,59.0,29.78,SSW,207,0.0,7.0,98,0.00,,,0.13,weatherlink.com 1.10,2013-10-23 12:27:00,
2013-10-23 08:42:00,59.8,59.0,29.78,West,270,2.0,7.0,98,0.00,,,0.13,weatherlink.com 1.10,2013-10-23 12:42:00,
2013-10-23 08:57:00,60.2,60.0,29.78,WSW,253,2.0,5.0,98,0.00,,,0.13,weatherlink.com 1.10,2013-10-23 12:57:00,
2013-10-23 09:12:00,60.5,60.0,29.78,West,262,2.0,10.0,98,0.00,,,0.13,weatherlink.com 1.10,2013-10-23 13:12:00,
2013-10-23 09:27:00,61.2,61.0,29.78,West,274,3.0,6.0,98,0.00,,,0.13,weatherlink.com 1.10,2013-10-23 13:27:00,
2013-10-23 09:42:00,61.8,61.0,29.78,WNW,300,5.0,14.0,96,0.00,,,0.13,weatherlink.com 1.10,2013-10-23 13:42:00,
2013-10-23 09:57:00,62.7,61.0,29.78,West,264,0.0,8.0,95,0.00,,,0.13,weatherlink.com 1.10,2013-10-23 13:57:00,
2013-10-23 10:12:00,63.7,61.0,29.78,WNW,295,4.0,10.0,91,0.00,,,0.13,weatherlink.com 1.10,2013-10-23 14:12:00,
2013-10-23 10:27:00,64.8,62.0,29.77,WNW,292,3.0,12.0,89,0.00,,,0.13,weatherlink.com 1.10,2013-10-23 14:27:00,
2013-10-23 10:42:00,65.8,61.0,29.77,WNW,299,4.0,9.0,83,0.00,,,0.13,weatherlink.com 1.10,2013-10-23 14:42:00,
2013-10-23 10:57:00,66.8,60.0,29.77,WNW,298,4.0,8.0,79,0.00,,,0.13,weatherlink.com 1.10,2013-10-23 14:57:00,
2013-10-23 11:12:00,67.2,58.0,29.77,WNW,302,5.0,9.0,73,0.00,,,0.13,weatherlink.com 1.10,2013-10-23 15:12:00,
2013-10-23 11:27:00,67.9,56.0,29.77,NNW,347,2.0,11.0,66,0.00,,,0.13,weatherlink.com 1.10,2013-10-23 15:27:00,
2013-10-23 11:42:00,68.4,57.0,29.77,WNW,286,3.0,11.0,67,0.00,,,0.13,weatherlink.com 1.10,2013-10-23 15:42:00,
2013-10-23 11:57:00,68.8,56.0,29.77,WNW,296,1.0,14.0,63,0.00,,,0.13,weatherlink.com 1.10,2013-10-23 15:57:00,
2013-10-23 12:12:00,69.1,55.0,29.77,WNW,295,4.0,12.0,62,0.00,,,0.13,weatherlink.com 1.10,2013-10-23 16:12:00,
2013-10-23 12:27:00,70.1,54.0,29.76,West,277,2.0,8.0,58,0.00,,,0.13,weatherlink.com 1.10,2013-10-23 16:27:00,
2013-10-23 12:43:00,70.2,54.0,29.75,NW,314,6.0,14.0,56,0.00,,,0.13,weatherlink.com 1.10,2013-10-23 16:43:00,
2013-10-23 12:58:00,71.1,55.0,29.75,North,8,10.0,10.0,57,0.00,,,0.13,weatherlink.com 1.10,2013-10-23 16:58:00,
2013-10-23 13:13:00,70.4,52.0,29.75,NW,315,7.0,17.0,52,0.00,,,0.13,weatherlink.com 1.10,2013-10-23 17:13:00,
2013-10-23 13:28:00,70.5,52.0,29.75,NW,319,9.0,16.0,53,0.00,,,0.13,weatherlink.com 1.10,2013-10-23 17:28:00,
2013-10-23 13:43:00,71.3,53.0,29.74,NW,313,7.0,14.0,52,0.00,,,0.13,weatherlink.com 1.10,2013-10-23 17:43:00,
2013-10-23 13:58:00,71.3,53.0,29.73,WNW,302,5.0,12.0,52,0.00,,,0.13,weatherlink.com 1.10,2013-10-23 17:58:00,
2013-10-23 14:13:00,71.7,52.0,29.73,NW,310,11.0,20.0,51,0.00,,,0.13,weatherlink.com 1.10,2013-10-23 18:13:00,
2013-10-23 14:28:00,71.4,50.0,29.74,NW,307,10.0,19.0,47,0.00,,,0.13,weatherlink.com 1.10,2013-10-23 18:28:00,
2013-10-23 14:43:00,71.5,51.0,29.73,NW,324,10.0,18.0,48,0.00,,,0.13,weatherlink.com 1.10,2013-10-23 18:43:00,
2013-10-23 14:58:00,71.3,49.0,29.74,NW,312,5.0,13.0,46,0.00,,,0.13,weatherlink.com 1.10,2013-10-23 18:58:00,
2013-10-23 15:13:00,71.7,49.0,29.74,WNW,288,5.0,13.0,45,0.00,,,0.13,weatherlink.com 1.10,2013-10-23 19:13:00,
2013-10-23 15:28:00,71.2,49.0,29.74,NW,314,8.0,16.0,46,0.00,,,0.13,weatherlink.com 1.10,2013-10-23 19:28:00,
2013-10-23 15:43:00,71.4,49.0,29.74,WNW,286,4.0,23.0,46,0.00,,,0.13,weatherlink.com 1.10,2013-10-23 19:43:00,
2013-10-23 15:58:00,71.4,45.0,29.74,NW,315,4.0,13.0,39,0.00,,,0.13,weatherlink.com 1.10,2013-10-23 19:58:00,
2013-10-23 16:13:00,71.3,46.0,29.75,NNW,336,8.0,13.0,40,0.00,,,0.13,weatherlink.com 1.10,2013-10-23 20:13:00,
2013-10-23 16:28:00,71.0,45.0,29.75,NW,317,12.0,12.0,40,0.00,,,0.13,weatherlink.com 1.10,2013-10-23 20:28:00,
2013-10-23 16:43:00,70.5,46.0,29.75,NNW,330,4.0,15.0,41,0.00,,,0.13,weatherlink.com 1.10,2013-10-23 20:43:00,
2013-10-23 16:58:00,69.8,45.0,29.76,NW,309,8.0,14.0,41,0.00,,,0.13,weatherlink.com 1.10,2013-10-23 20:58:00,
2013-10-23 17:13:00,69.5,45.0,29.77,NW,319,2.0,15.0,42,0.00,,,0.13,weatherlink.com 1.10,2013-10-23 21:13:00,
2013-10-23 17:28:00,69.1,45.0,29.78,NNW,338,7.0,11.0,42,0.00,,,0.13,weatherlink.com 1.10,2013-10-23 21:28:00,
2013-10-23 17:43:00,68.7,46.0,29.78,WNW,297,1.0,10.0,45,0.00,,,0.13,weatherlink.com 1.10,2013-10-23 21:43:00,
2013-10-23 17:58:00,68.0,46.0,29.79,NW,308,1.0,6.0,45,0.00,,,0.13,weatherlink.com 1.10,2013-10-23 21:58:00,
2013-10-23 18:13:00,66.9,45.0,29.80,NW,326,1.0,4.0,45,0.00,,,0.13,weatherlink.com 1.10,2013-10-23 22:13:00,
2013-10-23 18:28:00,65.9,45.0,29.81,WNW,299,1.0,3.0,47,0.00,,,0.13,weatherlink.com 1.10,2013-10-23 22:28:00,
2013-10-23 18:43:00,64.3,46.0,29.82,WNW,302,0.0,1.0,52,0.00,,,0.13,weatherlink.com 1.10,2013-10-23 22:43:00,
2013-10-23 18:58:00,62.3,46.0,29.83,WNW,301,0.0,0.0,56,0.00,,,0.13,weatherlink.com 1.10,2013-10-23 22:58:00,
2013-10-23 19:13:00,60.9,47.0,29.84,WNW,302,0.0,0.0,60,0.00,,,0.13,weatherlink.com 1.10,2013-10-23 23:13:00,
2013-10-23 19:28:00,59.6,48.0,29.84,WNW,291,0.0,1.0,65,0.00,,,0.13,weatherlink.com 1.10,2013-10-23 23:28:00,
2013-10-23 19:43:00,58.4,48.0,29.85,WNW,292,0.0,0.0,68,0.00,,,0.13,weatherlink.com 1.10,2013-10-23 23:43:00,
2013-10-23 19:58:00,57.1,48.0,29.86,WNW,291,0.0,0.0,72,0.00,,,0.13,weatherlink.com 1.10,2013-10-23 23:58:00,
2013-10-23 20:13:00,56.2,48.0,29.87,WNW,291,0.0,0.0,74,0.00,,,0.13,weatherlink.com 1.10,2013-10-24 00:13:00,
2013-10-23 20:28:00,56.0,49.0,29.88,WNW,291,0.0,1.0,77,0.00,,,0.13,weatherlink.com 1.10,2013-10-24 00:28:00,
2013-10-23 20:43:00,55.3,49.0,29.89,WNW,292,0.0,0.0,79,0.00,,,0.13,weatherlink.com 1.10,2013-10-24 00:43:00,
2013-10-23 20:58:00,54.6,49.0,29.89,WNW,291,0.0,0.0,82,0.00,,,0.13,weatherlink.com 1.10,2013-10-24 00:58:00,
2013-10-23 21:13:00,54.7,49.0,29.90,WNW,297,0.0,2.0,80,0.00,,,0.13,weatherlink.com 1.10,2013-10-24 01:13:00,
2013-10-23 21:28:00,55.1,48.0,29.90,WNW,289,1.0,1.0,78,0.00,,,0.13,weatherlink.com 1.10,2013-10-24 01:28:00,
2013-10-23 21:44:00,55.2,47.0,29.92,NNW,344,0.0,2.0,74,0.00,,,0.13,weatherlink.com 1.10,2013-10-24 01:44:00,
2013-10-23 21:59:00,55.3,47.0,29.94,NW,320,1.0,3.0,74,0.00,,,0.13,weatherlink.com 1.10,2013-10-24 01:59:00,
2013-10-23 22:14:00,56.1,47.0,29.95,NW,317,4.0,5.0,72,0.00,,,0.13,weatherlink.com 1.10,2013-10-24 02:14:00,
2013-10-23 22:29:00,56.0,46.0,29.96,NW,305,5.0,7.0,70,0.00,,,0.13,weatherlink.com 1.10,2013-10-24 02:29:00,
2013-10-23 22:44:00,55.7,45.0,29.97,NNW,330,4.0,6.0,68,0.00,,,0.13,weatherlink.com 1.10,2013-10-24 02:44:00,
2013-10-23 22:59:00,55.3,45.0,29.98,NNW,338,2.0,8.0,68,0.00,,,0.13,weatherlink.com 1.10,2013-10-24 02:59:00,
2013-10-23 23:14:00,54.8,44.0,29.99,NNE,16,4.0,7.0,68,0.00,,,0.13,weatherlink.com 1.10,2013-10-24 03:14:00,
2013-10-23 23:29:00,54.8,42.0,30.00,NNW,338,2.0,10.0,63,0.00,,,0.13,weatherlink.com 1.10,2013-10-24 03:29:00,
2013-10-23 23:44:00,54.4,41.0,30.00,NNW,336,6.0,9.0,61,0.00,,,0.13,weatherlink.com 1.10,2013-10-24 03:44:00,
2013-10-23 23:59:00,54.3,40.0,30.01,NNW,336,2.0,9.0,59,0.00,,,0.00,weatherlink.com 1.10,2013-10-24 03:59:00,